createdAt,value
2018-01-14T00:00:43.151Z,17.67
2018-01-14T00:03:10.646Z,18.45
2018-01-14T00:05:38.251Z,16.35
2018-01-14T00:08:06.531Z,20.10
2018-01-14T00:10:34.042Z,18.23
2018-01-14T00:13:01.555Z,15.90
2018-01-14T00:15:29.050Z,15.52
2018-01-14T00:17:56.561Z,16.10
2018-01-14T00:20:24.818Z,16.55
2018-01-14T00:22:53.079Z,15.93
2018-01-14T00:25:20.682Z,15.80
2018-01-14T00:27:48.183Z,16.62
2018-01-14T00:30:15.679Z,16.40
2018-01-14T00:32:43.954Z,15.10
2018-01-14T00:35:12.222Z,16.52
2018-01-14T00:37:39.730Z,16.73
2018-01-14T00:40:07.222Z,16.17
2018-01-14T00:42:34.759Z,18.15
2018-01-14T00:45:02.255Z,16.55
2018-01-14T00:47:29.754Z,19.05
2018-01-14T00:49:57.254Z,17.42
2018-01-14T00:52:24.754Z,16.60
2018-01-14T00:54:52.255Z,18.70
2018-01-14T00:57:19.750Z,16.45
2018-01-14T00:59:48.010Z,20.60
2018-01-14T01:02:15.508Z,17.65
2018-01-14T01:04:43.043Z,19.85
2018-01-14T01:07:11.306Z,17.73
2018-01-14T01:09:38.815Z,19.73
2018-01-14T01:12:06.322Z,17.33
2018-01-14T01:14:33.814Z,16.20
2018-01-14T01:17:01.357Z,17.87
2018-01-14T01:19:29.014Z,18.45
2018-01-14T01:21:57.325Z,17.65
2018-01-14T01:24:24.834Z,19.02
2018-01-14T01:26:52.326Z,17.00
2018-01-14T01:29:19.823Z,17.17
2018-01-14T01:31:47.332Z,17.33
2018-01-14T01:34:15.590Z,17.27
2018-01-14T01:36:43.082Z,16.80
2018-01-14T01:39:10.578Z,18.85
2018-01-14T01:41:38.171Z,16.77
2018-01-14T01:44:05.685Z,18.42
2018-01-14T01:46:33.194Z,18.30
2018-01-14T01:49:01.451Z,17.70
2018-01-14T01:51:28.962Z,17.95
2018-01-14T01:53:56.458Z,17.00
2018-01-14T01:56:23.958Z,17.00
2018-01-14T01:58:52.230Z,17.87
2018-01-14T02:01:20.490Z,19.25
2018-01-14T02:03:48.755Z,20.80
2018-01-14T02:06:17.770Z,19.70
2018-01-14T02:08:46.039Z,20.73
2018-01-14T02:11:14.303Z,19.52
2018-01-14T02:13:41.798Z,19.30
2018-01-14T02:16:09.310Z,21.45
2018-01-14T02:18:36.818Z,18.33
2018-01-14T02:21:04.315Z,19.87
2018-01-14T02:23:31.823Z,17.80
2018-01-14T02:26:00.198Z,17.37
2018-01-14T02:28:28.487Z,22.58
2018-01-14T02:30:56.742Z,20.92
2018-01-14T02:33:25.010Z,18.95
2018-01-14T02:35:52.509Z,21.50
2018-01-14T02:38:20.006Z,18.15
2018-01-14T02:40:47.501Z,19.05
2018-01-14T02:43:15.770Z,18.23
2018-01-14T02:45:44.033Z,19.75
2018-01-14T02:48:11.534Z,19.05
2018-01-14T02:50:39.044Z,18.55
2018-01-14T02:53:06.559Z,21.58
2018-01-14T02:55:34.066Z,19.98
2018-01-14T02:58:01.564Z,21.60
2018-01-14T03:00:29.055Z,20.33
2018-01-14T03:02:56.562Z,20.88
2018-01-14T03:05:24.825Z,24.73
2018-01-14T03:07:53.108Z,21.15
2018-01-14T03:10:21.375Z,22.45
2018-01-14T03:12:48.867Z,22.23
2018-01-14T03:15:16.358Z,21.75
2018-01-14T03:17:43.862Z,19.27
2018-01-14T03:20:12.140Z,22.05
2018-01-14T03:22:40.414Z,21.17
2018-01-14T03:25:08.675Z,21.00
2018-01-14T03:27:36.174Z,22.30
2018-01-14T03:30:03.683Z,21.77
2018-01-14T03:32:31.942Z,19.15
2018-01-14T03:34:59.438Z,19.83
2018-01-14T03:37:27.698Z,18.15
2018-01-14T03:39:55.242Z,23.87
2018-01-14T03:42:22.744Z,18.80
2018-01-14T03:44:50.244Z,21.20
2018-01-14T03:47:17.750Z,19.73
2018-01-14T03:49:46.014Z,21.35
2018-01-14T03:52:14.498Z,21.45
2018-01-14T03:54:42.777Z,21.52
2018-01-14T03:57:11.051Z,23.17
2018-01-14T03:59:39.322Z,22.87
2018-01-14T04:02:06.831Z,21.85
2018-01-14T04:04:34.322Z,23.45
2018-01-14T04:07:02.603Z,23.42
2018-01-14T04:09:30.098Z,19.95
2018-01-14T04:11:57.594Z,25.37
2018-01-14T04:14:25.085Z,23.30
2018-01-14T04:16:52.586Z,21.67
2018-01-14T04:19:23.669Z,22.25
2018-01-14T04:21:51.162Z,26.10
2018-01-14T04:24:19.443Z,25.35
2018-01-14T04:26:47.706Z,23.67
2018-01-14T04:29:15.975Z,24.17
2018-01-14T04:31:43.468Z,21.60
2018-01-14T04:34:10.970Z,21.98
2018-01-14T04:36:38.489Z,21.52
2018-01-14T04:39:05.982Z,26.60
2018-01-14T04:41:33.488Z,21.95
2018-01-14T04:44:01.799Z,20.90
2018-01-14T04:46:29.342Z,20.95
2018-01-14T04:48:56.838Z,22.60
2018-01-14T04:51:24.334Z,23.27
2018-01-14T04:53:52.705Z,26.50
2018-01-14T04:56:20.227Z,20.95
2018-01-14T04:58:47.723Z,21.40
2018-01-14T05:01:15.979Z,23.48
2018-01-14T05:03:43.494Z,20.98
2018-01-14T05:06:11.038Z,19.67
2018-01-14T05:08:38.550Z,19.83
2018-01-14T05:11:06.082Z,19.40
2018-01-14T05:13:33.578Z,19.85
2018-01-14T05:16:01.071Z,19.87
2018-01-14T05:18:28.606Z,21.45
2018-01-14T05:20:56.875Z,17.23
2018-01-14T05:23:25.157Z,17.27
2018-01-14T05:25:53.430Z,16.25
2018-01-14T05:28:21.101Z,16.00
2018-01-14T05:30:49.406Z,14.30
2018-01-14T05:33:16.904Z,16.65
2018-01-14T05:35:44.394Z,14.20
2018-01-14T05:38:12.672Z,16.35
2018-01-14T05:40:40.926Z,17.90
2018-01-14T05:43:08.423Z,15.85
2018-01-14T05:45:35.964Z,16.52
2018-01-14T05:48:04.223Z,14.90
2018-01-14T05:50:31.765Z,15.05
2018-01-14T05:52:59.262Z,14.95
2018-01-14T05:55:27.652Z,16.08
2018-01-14T05:57:55.197Z,16.90
2018-01-14T06:00:23.458Z,19.15
2018-01-14T06:02:50.957Z,17.02
2018-01-14T06:05:18.450Z,17.33
2018-01-14T06:07:45.945Z,16.42
2018-01-14T06:10:14.206Z,15.25
2018-01-14T06:12:41.791Z,19.77
2018-01-14T06:15:09.239Z,16.17
2018-01-14T06:17:37.498Z,15.75
2018-01-14T06:20:05.038Z,15.52
2018-01-14T06:22:32.515Z,15.38
2018-01-14T06:25:00.028Z,14.73
2018-01-14T06:27:27.526Z,14.20
2018-01-14T06:29:55.211Z,12.60
2018-01-14T06:32:23.520Z,14.77
2018-01-14T06:34:51.035Z,14.32
2018-01-14T06:37:18.527Z,15.18
2018-01-14T06:39:46.043Z,18.98
2018-01-14T06:42:13.535Z,14.10
2018-01-14T06:44:41.030Z,15.77
2018-01-14T06:47:08.738Z,13.30
2018-01-14T06:49:37.010Z,16.80
2018-01-14T06:52:05.270Z,20.00
2018-01-14T06:54:32.785Z,13.07
2018-01-14T06:57:00.330Z,13.13
2018-01-14T06:59:27.824Z,14.90
2018-01-14T07:01:55.327Z,13.98
2018-01-14T07:04:23.582Z,14.13
2018-01-14T07:06:51.083Z,15.20
2018-01-14T07:09:18.641Z,15.45
2018-01-14T07:11:46.134Z,14.13
2018-01-14T07:14:13.638Z,15.25
2018-01-14T07:16:41.907Z,14.70
2018-01-14T07:19:10.182Z,15.63
2018-01-14T07:21:38.489Z,16.27
2018-01-14T07:24:06.003Z,16.27
2018-01-14T07:26:33.890Z,17.20
2018-01-14T07:29:02.147Z,15.18
2018-01-14T07:31:29.648Z,15.70
2018-01-14T07:33:57.147Z,16.15
2018-01-14T07:36:24.643Z,16.95
2018-01-14T07:38:52.950Z,15.10
2018-01-14T07:41:20.444Z,13.65
2018-01-14T07:43:47.976Z,15.52
2018-01-14T07:46:15.480Z,14.75
2018-01-14T07:48:43.758Z,16.58
2018-01-14T07:51:11.259Z,14.18
2018-01-14T07:53:38.763Z,13.65
2018-01-14T07:56:06.254Z,15.82
2018-01-14T07:58:34.515Z,15.52
2018-01-14T08:01:02.790Z,15.73
2018-01-14T08:03:31.274Z,15.80
2018-01-14T08:05:59.538Z,13.95
2018-01-14T08:08:27.035Z,18.35
2018-01-14T08:10:55.358Z,16.12
2018-01-14T08:13:22.863Z,14.85
2018-01-14T08:15:50.358Z,13.75
2018-01-14T08:18:17.867Z,14.43
2018-01-14T08:20:46.127Z,13.00
2018-01-14T08:23:13.614Z,15.75
2018-01-14T08:25:41.111Z,15.80
2018-01-14T08:28:09.154Z,19.12
2018-01-14T08:30:36.650Z,14.15
2018-01-14T08:33:04.160Z,15.40
2018-01-14T08:35:31.658Z,17.02
2018-01-14T08:37:59.150Z,15.70
2018-01-14T08:40:27.450Z,14.90
2018-01-14T08:42:54.942Z,15.13
2018-01-14T08:45:22.435Z,17.65
2018-01-14T08:47:49.934Z,15.63
2018-01-14T08:50:17.423Z,13.70
2018-01-14T08:52:45.034Z,13.60
2018-01-14T08:55:13.290Z,13.85
2018-01-14T08:57:40.802Z,16.50
2018-01-14T09:00:08.298Z,16.02
2018-01-14T09:02:35.797Z,14.25
2018-01-14T09:05:03.299Z,15.75
2018-01-14T09:07:30.839Z,14.38
2018-01-14T09:09:58.334Z,15.45
2018-01-14T09:12:26.014Z,18.55
2018-01-14T09:14:54.278Z,16.83
2018-01-14T09:17:21.775Z,18.75
2018-01-14T09:19:49.272Z,15.02
2018-01-14T09:22:16.771Z,15.93
2018-01-14T09:24:45.039Z,12.60
2018-01-14T09:27:13.314Z,14.30
2018-01-14T09:29:41.798Z,11.90
2018-01-14T09:32:10.080Z,15.00
2018-01-14T09:34:38.466Z,11.07
2018-01-14T09:37:05.982Z,14.52
2018-01-14T09:39:33.474Z,14.52
2018-01-14T09:42:01.747Z,14.18
2018-01-14T09:44:30.054Z,12.55
2018-01-14T09:46:57.551Z,13.98
2018-01-14T09:49:25.218Z,13.10
2018-01-14T09:51:53.519Z,14.73
2018-01-14T09:54:21.774Z,12.65
2018-01-14T09:56:49.270Z,12.80
2018-01-14T09:59:16.774Z,12.35
2018-01-14T10:01:44.269Z,13.43
2018-01-14T10:04:12.551Z,13.38
2018-01-14T10:06:40.815Z,13.55
2018-01-14T10:09:08.311Z,11.85
2018-01-14T10:11:35.799Z,11.82
2018-01-14T10:14:03.294Z,12.60
2018-01-14T10:16:31.670Z,11.80
2018-01-14T10:18:59.954Z,11.48
2018-01-14T10:21:28.214Z,15.15
2018-01-14T10:23:55.706Z,12.68
2018-01-14T10:26:23.202Z,13.07
2018-01-14T10:28:50.814Z,12.15
2018-01-14T10:31:19.095Z,11.45
2018-01-14T10:33:47.358Z,12.75
2018-01-14T10:36:15.635Z,12.68
2018-01-14T10:38:43.901Z,12.57
2018-01-14T10:41:11.395Z,12.52
2018-01-14T10:43:38.994Z,13.38
2018-01-14T10:46:06.485Z,14.30
2018-01-14T10:48:34.739Z,10.35
2018-01-14T10:51:03.015Z,12.63
2018-01-14T10:53:30.505Z,11.07
2018-01-14T10:55:58.766Z,10.98
2018-01-14T10:58:26.256Z,9.60
2018-01-14T11:00:58.202Z,9.73
2018-01-14T11:03:26.507Z,9.45
2018-01-14T11:05:54.000Z,9.32
2018-01-14T11:08:21.522Z,9.10
2018-01-14T11:10:49.014Z,9.18
2018-01-14T11:13:16.623Z,8.52
2018-01-14T11:15:44.122Z,8.00
2018-01-14T11:18:11.627Z,8.48
2018-01-14T11:20:39.883Z,8.38
2018-01-14T11:23:07.375Z,9.23
2018-01-14T11:25:35.017Z,8.75
2018-01-14T11:28:03.310Z,8.85
2018-01-14T11:30:30.807Z,10.38
2018-01-14T11:32:58.315Z,10.50
2018-01-14T11:35:26.578Z,10.35
2018-01-14T11:37:54.846Z,10.70
2018-01-14T11:40:22.354Z,9.10
2018-01-14T11:42:49.876Z,11.80
2018-01-14T11:45:18.148Z,9.98
2018-01-14T11:47:45.638Z,10.00
2018-01-14T11:50:13.147Z,9.20
2018-01-14T11:52:40.646Z,10.20
2018-01-14T11:55:08.213Z,10.07
2018-01-14T11:57:35.851Z,12.65
2018-01-14T12:00:04.113Z,10.00
2018-01-14T12:02:31.790Z,9.60
2018-01-14T12:05:00.065Z,9.70
2018-01-14T12:07:28.324Z,9.82
2018-01-14T12:09:55.830Z,9.30
2018-01-14T12:12:23.324Z,11.93
2018-01-14T12:14:50.840Z,8.80
2018-01-14T12:17:18.327Z,9.60
2018-01-14T12:19:45.820Z,12.00
2018-01-14T12:22:13.318Z,10.18
2018-01-14T12:24:40.826Z,10.05
2018-01-14T12:27:09.837Z,9.85
2018-01-14T12:29:38.120Z,11.40
2018-01-14T12:32:06.402Z,11.30
2018-01-14T12:34:39.579Z,11.07
2018-01-14T12:37:07.845Z,12.82
2018-01-14T12:39:35.346Z,11.10
2018-01-14T12:42:03.820Z,12.37
2018-01-14T12:44:32.075Z,13.10
2018-01-14T12:47:00.343Z,13.27
2018-01-14T12:49:27.861Z,12.82
2018-01-14T12:51:55.357Z,10.45
2018-01-14T12:54:22.870Z,12.43
2018-01-14T12:56:50.417Z,11.95
2018-01-14T12:59:17.918Z,14.85
2018-01-14T13:01:45.418Z,11.55
2018-01-14T13:04:13.678Z,10.73
2018-01-14T13:06:41.946Z,14.40
2018-01-14T13:09:09.487Z,11.75
2018-01-14T13:11:37.023Z,13.95
2018-01-14T13:14:04.738Z,15.07
2018-01-14T13:16:33.002Z,12.52
2018-01-14T13:19:00.500Z,13.48
2018-01-14T13:21:28.011Z,15.43
2018-01-14T13:23:55.516Z,13.40
2018-01-14T13:26:23.026Z,13.98
2018-01-14T13:28:51.303Z,17.10
2018-01-14T13:31:18.987Z,12.57
2018-01-14T13:33:47.242Z,13.25
2018-01-14T13:36:14.803Z,13.30
2018-01-14T13:38:42.496Z,15.35
2018-01-14T13:41:10.802Z,12.25
2018-01-14T13:43:38.314Z,11.80
2018-01-14T13:46:06.574Z,12.20
2018-01-14T13:48:34.260Z,12.70
2018-01-14T13:51:02.738Z,13.70
2018-01-14T13:53:31.014Z,12.13
2018-01-14T13:55:59.281Z,14.80
2018-01-14T13:58:27.555Z,14.35
2018-01-14T14:00:55.796Z,16.15
2018-01-14T14:03:23.291Z,14.55
2018-01-14T14:05:50.786Z,14.05
2018-01-14T14:08:18.327Z,13.20
2018-01-14T14:10:45.806Z,16.37
2018-01-14T14:13:13.303Z,14.32
2018-01-14T14:15:40.925Z,17.37
2018-01-14T14:18:08.430Z,14.23
2018-01-14T14:20:35.936Z,15.27
2018-01-14T14:23:03.446Z,14.00
2018-01-14T14:25:30.938Z,13.65
2018-01-14T14:27:59.198Z,15.40
2018-01-14T14:30:27.455Z,13.32
2018-01-14T14:32:55.099Z,14.07
2018-01-14T14:35:22.614Z,14.15
2018-01-14T14:37:50.114Z,13.90
2018-01-14T14:40:20.070Z,12.75
2018-01-14T14:42:48.334Z,13.95
2018-01-14T14:45:15.822Z,15.80
2018-01-14T14:47:43.410Z,15.27
2018-01-14T14:50:10.926Z,15.70
2018-01-14T14:52:39.298Z,13.55
2018-01-14T14:55:07.575Z,15.38
2018-01-14T14:57:35.831Z,14.90
2018-01-14T15:00:03.330Z,14.07
2018-01-14T15:02:30.830Z,13.80
2018-01-14T15:04:58.334Z,15.90
2018-01-14T15:07:26.596Z,17.02
2018-01-14T15:09:54.870Z,17.67
2018-01-14T15:12:22.371Z,15.57
2018-01-14T15:14:49.864Z,16.52
2018-01-14T15:17:17.363Z,13.82
2018-01-14T15:19:45.630Z,15.75
2018-01-14T15:22:13.890Z,19.35
2018-01-14T15:24:41.576Z,17.30
2018-01-14T15:27:09.842Z,17.05
2018-01-14T15:29:37.335Z,14.30
2018-01-14T15:32:04.947Z,17.98
2018-01-14T15:34:32.584Z,17.10
2018-01-14T15:37:00.084Z,14.80
2018-01-14T15:39:28.351Z,20.50
2018-01-14T15:41:55.847Z,17.23
2018-01-14T15:44:23.339Z,16.58
2018-01-14T15:46:50.866Z,15.23
2018-01-14T15:49:18.498Z,16.90
2018-01-14T15:51:46.774Z,16.40
2018-01-14T15:54:15.048Z,16.65
2018-01-14T15:56:43.318Z,20.50
2018-01-14T15:59:10.815Z,15.05
2018-01-14T16:01:38.323Z,13.32
2018-01-14T16:04:05.818Z,16.42
2018-01-14T16:06:33.311Z,16.62
2018-01-14T16:09:00.810Z,13.93
2018-01-14T16:11:28.305Z,14.38
2018-01-14T16:13:55.842Z,14.18
2018-01-14T16:16:24.103Z,13.82
2018-01-14T16:18:52.375Z,13.98
2018-01-14T16:21:19.878Z,12.02
2018-01-14T16:23:47.390Z,13.68
2018-01-14T16:26:14.898Z,14.73
2018-01-14T16:28:42.395Z,16.15
2018-01-14T16:31:09.935Z,14.68
2018-01-14T16:33:37.448Z,13.45
2018-01-14T16:36:05.702Z,15.48
2018-01-14T16:38:33.223Z,16.10
2018-01-14T16:41:00.748Z,15.95
2018-01-14T16:43:28.246Z,16.15
2018-01-14T16:45:55.743Z,15.77
2018-01-14T16:48:24.005Z,15.05
2018-01-14T16:50:51.614Z,15.02
2018-01-14T16:53:19.106Z,15.48
2018-01-14T16:55:46.649Z,15.23
2018-01-14T16:58:14.162Z,15.40
2018-01-14T17:00:43.771Z,15.98
2018-01-14T17:03:13.844Z,15.60
2018-01-14T17:05:41.347Z,14.27
2018-01-14T17:08:09.605Z,18.30
2018-01-14T17:10:37.103Z,16.50
2018-01-14T17:13:04.594Z,17.35
2018-01-14T17:15:32.183Z,20.33
2018-01-14T17:18:00.947Z,15.82
2018-01-14T17:20:29.325Z,18.12
2018-01-14T17:22:57.009Z,17.12
2018-01-14T17:25:25.408Z,18.40
2018-01-14T17:27:52.994Z,17.15
2018-01-14T17:30:20.631Z,17.85
2018-01-14T17:32:50.456Z,19.02
2018-01-14T17:35:18.102Z,21.00
2018-01-14T17:37:46.378Z,18.95
2018-01-14T17:40:14.639Z,20.33
2018-01-14T17:42:42.191Z,17.83
2018-01-14T17:45:09.728Z,17.08
2018-01-14T17:47:37.234Z,21.02
2018-01-14T17:50:05.604Z,17.33
2018-01-14T17:52:33.255Z,18.00
2018-01-14T17:55:01.647Z,18.77
2018-01-14T17:57:29.281Z,23.87
2018-01-14T17:59:56.864Z,24.50
2018-01-14T18:02:25.299Z,23.75
2018-01-14T18:04:53.179Z,23.48
2018-01-14T18:07:21.525Z,26.12
2018-01-14T18:09:49.115Z,22.65
2018-01-14T18:12:16.798Z,23.83
2018-01-14T18:14:45.238Z,27.08
2018-01-14T18:17:24.497Z,24.92
2018-01-14T18:19:52.138Z,26.65
2018-01-14T18:22:19.658Z,24.60
2018-01-14T18:24:47.966Z,24.75
2018-01-14T18:27:15.515Z,25.05
2018-01-14T18:29:43.172Z,24.75
2018-01-14T18:32:11.546Z,25.42
2018-01-14T18:34:39.817Z,24.80
2018-01-14T18:37:07.459Z,24.87
2018-01-14T18:39:35.810Z,26.00
2018-01-14T18:42:03.469Z,23.85
2018-01-14T18:44:31.075Z,24.17
2018-01-14T18:46:59.435Z,28.15
2018-01-14T18:49:27.062Z,23.75
2018-01-14T18:51:54.700Z,25.42
2018-01-14T18:54:23.053Z,21.48
2018-01-14T18:56:50.700Z,34.60
2018-01-14T18:59:19.351Z,23.70
2018-01-14T19:01:47.086Z,21.87
2018-01-14T19:04:15.192Z,23.33
2018-01-14T19:06:42.845Z,19.05
2018-01-14T19:09:10.698Z,17.50
2018-01-14T19:11:38.801Z,20.08
2018-01-14T19:14:06.725Z,19.40
2018-01-14T19:16:35.400Z,18.35
2018-01-14T19:19:03.529Z,19.17
2018-01-14T19:21:31.151Z,18.35
2018-01-14T19:23:59.544Z,19.05
2018-01-14T19:26:27.200Z,19.30
2018-01-14T19:28:55.680Z,23.15
2018-01-14T19:31:23.299Z,21.42
2018-01-14T19:33:51.644Z,23.52
2018-01-14T19:36:19.271Z,25.17
2018-01-14T19:38:47.135Z,23.15
2018-01-14T19:41:14.764Z,22.85
2018-01-14T19:43:42.447Z,20.45
2018-01-14T19:46:10.121Z,18.62
2018-01-14T19:48:37.792Z,18.75
2018-01-14T19:51:05.428Z,19.08
2018-01-14T19:53:33.106Z,22.27
2018-01-14T19:56:00.743Z,18.67
2018-01-14T19:58:28.430Z,17.58
2018-01-14T20:00:56.043Z,17.33
2018-01-14T20:03:25.330Z,20.50
2018-01-14T20:05:52.938Z,20.45
2018-01-14T20:08:20.560Z,24.70
2018-01-14T20:10:48.273Z,19.98
2018-01-14T20:13:17.189Z,22.02
2018-01-14T20:15:44.815Z,19.75
2018-01-14T20:18:12.599Z,17.55
2018-01-14T20:20:40.241Z,20.42
2018-01-14T20:23:08.093Z,20.80
2018-01-14T20:25:35.715Z,20.48
2018-01-14T20:28:03.352Z,21.62
2018-01-14T20:30:30.967Z,19.65
2018-01-14T20:32:59.359Z,20.52
2018-01-14T20:35:27.007Z,18.35
2018-01-14T20:37:54.644Z,20.27
2018-01-14T20:40:22.169Z,19.55
2018-01-14T20:42:49.674Z,21.37
2018-01-14T20:45:17.183Z,21.02
2018-01-14T20:47:44.696Z,22.23
2018-01-14T20:50:12.196Z,23.15
2018-01-14T20:52:39.706Z,21.80
2018-01-14T20:55:07.224Z,19.33
2018-01-14T20:57:34.727Z,21.17
2018-01-14T21:00:03.002Z,20.37
2018-01-14T21:02:30.507Z,20.75
2018-01-14T21:04:58.036Z,23.40
2018-01-14T21:07:26.335Z,19.95
2018-01-14T21:09:53.984Z,26.73
2018-01-14T21:12:22.266Z,27.80
2018-01-14T21:14:50.526Z,27.83
2018-01-14T21:17:18.794Z,31.15
2018-01-14T21:19:46.358Z,24.58
2018-01-14T21:22:13.806Z,28.77
2018-01-14T21:24:41.298Z,29.33
2018-01-14T21:27:08.794Z,26.83
2018-01-14T21:29:36.325Z,25.17
2018-01-14T21:32:03.818Z,26.87
2018-01-14T21:34:31.359Z,29.02
2018-01-14T21:36:58.870Z,27.92
2018-01-14T21:39:27.135Z,26.48
2018-01-14T21:41:54.827Z,26.85
2018-01-14T21:44:22.327Z,27.40
2018-01-14T21:46:49.831Z,26.60
2018-01-14T21:49:18.108Z,29.75
2018-01-14T21:51:46.586Z,29.73
2018-01-14T21:54:14.857Z,30.35
2018-01-14T21:56:43.159Z,30.30
2018-01-14T21:59:10.658Z,29.75
2018-01-14T22:01:38.146Z,30.45
2018-01-14T22:04:06.451Z,29.00
2018-01-14T22:06:35.747Z,28.12
2018-01-14T22:09:03.258Z,27.65
2018-01-14T22:11:30.798Z,25.60
2018-01-14T22:13:58.918Z,30.95
2018-01-14T22:16:27.224Z,30.40
2018-01-14T22:18:54.719Z,29.20
2018-01-14T22:21:22.215Z,28.12
2018-01-14T22:23:50.509Z,27.23
2018-01-14T22:26:18.766Z,27.87
2018-01-14T22:28:47.049Z,27.37
2018-01-14T22:31:15.306Z,22.50
2018-01-14T22:33:43.694Z,18.90
2018-01-14T22:36:11.971Z,21.08
2018-01-14T22:38:40.234Z,22.95
2018-01-14T22:41:07.722Z,22.83
2018-01-14T22:43:35.222Z,18.95
2018-01-14T22:46:02.733Z,21.35
2018-01-14T22:48:30.992Z,18.75
2018-01-14T22:50:59.255Z,21.10
2018-01-14T22:53:26.755Z,23.70
2018-01-14T22:55:54.375Z,21.95
2018-01-14T22:58:21.917Z,18.70
2018-01-14T23:00:49.594Z,21.75
2018-01-14T23:03:17.096Z,22.08
2018-01-14T23:05:44.590Z,17.80
2018-01-14T23:08:12.131Z,20.80
2018-01-14T23:10:39.642Z,22.55
2018-01-14T23:13:07.155Z,20.27
2018-01-14T23:15:34.659Z,19.65
2018-01-14T23:18:02.172Z,22.42
2018-01-14T23:20:29.672Z,19.70
2018-01-14T23:22:57.414Z,23.15
2018-01-14T23:25:24.911Z,19.83
2018-01-14T23:27:53.175Z,24.55
2018-01-14T23:30:21.434Z,23.08
2018-01-14T23:32:48.930Z,18.58
2018-01-14T23:35:16.575Z,22.75
2018-01-14T23:37:44.830Z,20.05
2018-01-14T23:40:12.326Z,20.75
2018-01-14T23:42:39.826Z,19.75
2018-01-14T23:45:07.335Z,21.42
2018-01-14T23:47:35.806Z,22.05
2018-01-14T23:50:04.070Z,21.08
2018-01-14T23:52:31.578Z,20.80
2018-01-14T23:54:59.200Z,18.50
2018-01-14T23:57:27.471Z,20.05
2018-01-14T23:59:54.963Z,19.55
